Guangzhou Baiyun International Airport
ZGGG : now visible

Airfield :











YOU CAN JOIN US ON...

 
LOGIN :

Register | Disclaimer

   EN    FR    IT 

 









Legend :    VFR   Marginal VFR   IFR   Intensive IFR   Very Intensive IFR
Visi :
Ceiling :
>= 8 km
>= 3000ft
5 to 8 km
1000 to 3000 ft
1500m to 5 km
500 to 1000 ft
800 to 1500m
200 to 500 ft
< 800m
< 200 ft
Symbols :   Thunderstorms  Fog  Heavy snow  Heavy precipitations  Wind > 20 kt






- Airport Elevation : 50 ft
- IATA code : CAN


ZGGG - Guangzhou Baiyun International

CURRENT METAR :
  • 250200Z 05004MPS 020V080 CAVOK 31/22 Q1012 NOSIG

EXPIRED METARs :
  • 250130Z 07003MPS 020V110 CAVOK 30/23 Q1012 NOSIG
  • 250030Z VRB01MPS 8000 NSC 28/24 Q1012 NOSIG
  • 242330Z 06002MPS 7000 NSC 27/24 Q1012 NOSIG

TAF TAF ZGGG
Valid from the 25 at 00:00 until the 26 at 00:00 UTC


242101Z 2500/2524 05003MPS 8000 SCT040 TX34/2507Z TN26/2522Z
ZGZU FIR / Asia



MET'MAP, your aeronautical weather chart ! - Copyright ORBIFLY December 2007 - Disclaimer

ORBIFLY MET'MAP TEAM :

Programming & Development : Alexandra Zaïnal
Original concept : Baudouin d'Aumeries
Technical & hardware support : Manuel Goepfert
Assistance : Marc-Olivier Méhu




SOURCES & CREDITS :

   NOAA       Earth
Advisory